Terminal Aerodrome Forecast
Issued by NWS

Home | Current Version | Previous Version | Text Only | Print | Product List | Glossary On
Versions: 1 2 3 4 5 6 7 8 9 10 11 12 13 14 15 16 17 18 19
000
FTUS43 KAPX 232325
TAFTVC
TAF
KTVC 232325Z 2400/2424 24009KT P6SM FEW050
     FM240200 31008KT P6SM FEW060
     FM240400 00000KT P6SM SCT050
     FM240800 23006KT P6SM FEW045
     FM241100 26007KT P6SM SCT045
     FM241200 28005KT P6SM BKN050=

USA.gov is the U.S. government's official web portal to all federal, state and local government web resources and services.